sensor_id;sensor_type;location;lat;lon;timestamp;P1;durP1;ratioP1;P2;durP2;ratioP2
19278;SDS011;9773;47.062;15.446;2023-02-01T00:01:44;5.87;;;4.10;;
19278;SDS011;9773;47.062;15.446;2023-02-01T00:04:09;5.23;;;3.77;;
19278;SDS011;9773;47.062;15.446;2023-02-01T00:06:35;5.13;;;4.20;;
19278;SDS011;9773;47.062;15.446;2023-02-01T00:09:01;6.90;;;4.33;;
19278;SDS011;9773;47.062;15.446;2023-02-01T00:11:27;6.97;;;4.70;;
19278;SDS011;9773;47.062;15.446;2023-02-01T00:13:53;8.30;;;4.37;;
19278;SDS011;9773;47.062;15.446;2023-02-01T00:16:21;6.20;;;4.33;;
19278;SDS011;9773;47.062;15.446;2023-02-01T00:18:52;4.40;;;4.00;;
19278;SDS011;9773;47.062;15.446;2023-02-01T00:21:22;6.67;;;4.23;;
19278;SDS011;9773;47.062;15.446;2023-02-01T00:23:47;7.77;;;4.73;;
19278;SDS011;9773;47.062;15.446;2023-02-01T00:26:19;8.30;;;4.13;;
19278;SDS011;9773;47.062;15.446;2023-02-01T00:28:50;8.43;;;4.13;;
19278;SDS011;9773;47.062;15.446;2023-02-01T00:31:16;5.17;;;4.07;;
19278;SDS011;9773;47.062;15.446;2023-02-01T00:33:42;5.77;;;4.03;;
19278;SDS011;9773;47.062;15.446;2023-02-01T00:36:08;7.87;;;4.43;;
19278;SDS011;9773;47.062;15.446;2023-02-01T00:38:36;4.90;;;3.90;;
19278;SDS011;9773;47.062;15.446;2023-02-01T00:41:06;7.20;;;4.03;;
19278;SDS011;9773;47.062;15.446;2023-02-01T00:43:37;5.23;;;4.43;;
19278;SDS011;9773;47.062;15.446;2023-02-01T00:46:03;6.70;;;4.77;;
19278;SDS011;9773;47.062;15.446;2023-02-01T00:48:29;6.27;;;4.33;;
19278;SDS011;9773;47.062;15.446;2023-02-01T00:50:58;3.93;;;3.63;;
19278;SDS011;9773;47.062;15.446;2023-02-01T00:53:27;6.73;;;4.53;;
19278;SDS011;9773;47.062;15.446;2023-02-01T00:55:53;4.37;;;3.97;;
19278;SDS011;9773;47.062;15.446;2023-02-01T00:58:19;6.67;;;4.27;;
19278;SDS011;9773;47.062;15.446;2023-02-01T01:00:45;4.83;;;3.87;;
19278;SDS011;9773;47.062;15.446;2023-02-01T01:03:11;7.07;;;4.57;;
19278;SDS011;9773;47.062;15.446;2023-02-01T01:05:44;4.37;;;3.97;;
19278;SDS011;9773;47.062;15.446;2023-02-01T01:08:10;5.77;;;3.97;;
19278;SDS011;9773;47.062;15.446;2023-02-01T01:10:37;4.23;;;3.83;;
19278;SDS011;9773;47.062;15.446;2023-02-01T01:13:03;5.93;;;4.67;;
19278;SDS011;9773;47.062;15.446;2023-02-01T01:15:29;4.40;;;4.00;;
19278;SDS011;9773;47.062;15.446;2023-02-01T01:17:55;5.07;;;4.10;;
19278;SDS011;9773;47.062;15.446;2023-02-01T01:20:21;6.87;;;4.53;;
19278;SDS011;9773;47.062;15.446;2023-02-01T01:22:47;5.07;;;4.27;;
19278;SDS011;9773;47.062;15.446;2023-02-01T01:25:13;5.97;;;4.57;;
19278;SDS011;9773;47.062;15.446;2023-02-01T01:27:39;6.83;;;4.90;;
19278;SDS011;9773;47.062;15.446;2023-02-01T01:30:05;5.17;;;4.43;;
19278;SDS011;9773;47.062;15.446;2023-02-01T01:32:32;4.90;;;4.40;;
19278;SDS011;9773;47.062;15.446;2023-02-01T01:34:58;10.00;;;5.63;;
19278;SDS011;9773;47.062;15.446;2023-02-01T01:37:24;11.27;;;4.83;;
19278;SDS011;9773;47.062;15.446;2023-02-01T01:39:50;10.50;;;6.50;;
19278;SDS011;9773;47.062;15.446;2023-02-01T01:42:15;11.23;;;4.93;;
19278;SDS011;9773;47.062;15.446;2023-02-01T01:45:00;9.87;;;5.53;;
19278;SDS011;9773;47.062;15.446;2023-02-01T01:47:44;8.40;;;5.60;;
19278;SDS011;9773;47.062;15.446;2023-02-01T01:50:15;6.87;;;5.20;;
19278;SDS011;9773;47.062;15.446;2023-02-01T01:52:45;5.30;;;4.43;;
19278;SDS011;9773;47.062;15.446;2023-02-01T01:55:14;5.73;;;4.87;;
19278;SDS011;9773;47.062;15.446;2023-02-01T01:57:42;8.57;;;4.90;;
19278;SDS011;9773;47.062;15.446;2023-02-01T02:00:13;6.40;;;4.47;;
19278;SDS011;9773;47.062;15.446;2023-02-01T02:02:43;5.87;;;5.07;;
19278;SDS011;9773;47.062;15.446;2023-02-01T02:05:11;5.33;;;4.57;;
19278;SDS011;9773;47.062;15.446;2023-02-01T02:07:42;6.40;;;5.07;;
19278;SDS011;9773;47.062;15.446;2023-02-01T02:10:11;7.20;;;4.73;;
19278;SDS011;9773;47.062;15.446;2023-02-01T02:12:38;7.00;;;4.33;;
19278;SDS011;9773;47.062;15.446;2023-02-01T02:15:09;5.07;;;4.50;;
19278;SDS011;9773;47.062;15.446;2023-02-01T02:23:46;5.20;;;4.00;;
19278;SDS011;9773;47.062;15.446;2023-02-01T02:37:43;5.80;;;4.60;;
19278;SDS011;9773;47.062;15.446;2023-02-01T02:40:25;6.53;;;4.80;;
19278;SDS011;9773;47.062;15.446;2023-02-01T02:46:40;6.77;;;4.50;;
19278;SDS011;9773;47.062;15.446;2023-02-01T02:49:32;3.90;;;3.23;;
19278;SDS011;9773;47.062;15.446;2023-02-01T02:52:35;5.10;;;3.77;;
19278;SDS011;9773;47.062;15.446;2023-02-01T02:55:26;7.30;;;4.07;;
19278;SDS011;9773;47.062;15.446;2023-02-01T02:57:53;5.67;;;3.20;;
19278;SDS011;9773;47.062;15.446;2023-02-01T03:00:40;4.30;;;3.57;;
19278;SDS011;9773;47.062;15.446;2023-02-01T03:03:26;5.43;;;3.60;;
19278;SDS011;9773;47.062;15.446;2023-02-01T03:06:14;4.33;;;3.30;;
19278;SDS011;9773;47.062;15.446;2023-02-01T03:08:43;4.43;;;3.80;;
19278;SDS011;9773;47.062;15.446;2023-02-01T03:11:12;5.67;;;4.10;;
19278;SDS011;9773;47.062;15.446;2023-02-01T03:16:24;4.60;;;3.17;;
19278;SDS011;9773;47.062;15.446;2023-02-01T03:19:37;3.87;;;3.20;;
19278;SDS011;9773;47.062;15.446;2023-02-01T03:24:21;3.77;;;3.47;;
19278;SDS011;9773;47.062;15.446;2023-02-01T03:29:54;3.70;;;3.40;;
19278;SDS011;9773;47.062;15.446;2023-02-01T03:32:24;4.07;;;3.60;;
19278;SDS011;9773;47.062;15.446;2023-02-01T03:34:50;5.43;;;3.97;;
19278;SDS011;9773;47.062;15.446;2023-02-01T03:37:25;4.43;;;4.03;;
19278;SDS011;9773;47.062;15.446;2023-02-01T03:40:00;5.87;;;3.73;;
19278;SDS011;9773;47.062;15.446;2023-02-01T03:42:38;4.70;;;3.93;;
19278;SDS011;9773;47.062;15.446;2023-02-01T03:45:11;3.97;;;3.53;;
19278;SDS011;9773;47.062;15.446;2023-02-01T03:47:56;4.07;;;3.67;;
19278;SDS011;9773;47.062;15.446;2023-02-01T03:50:25;6.40;;;3.30;;
19278;SDS011;9773;47.062;15.446;2023-02-01T03:52:53;6.03;;;3.40;;
19278;SDS011;9773;47.062;15.446;2023-02-01T03:55:28;5.97;;;4.33;;
19278;SDS011;9773;47.062;15.446;2023-02-01T03:58:01;4.43;;;3.87;;
19278;SDS011;9773;47.062;15.446;2023-02-01T04:00:38;6.37;;;4.60;;
19278;SDS011;9773;47.062;15.446;2023-02-01T04:03:05;4.80;;;4.23;;
19278;SDS011;9773;47.062;15.446;2023-02-01T04:05:32;6.57;;;4.30;;
19278;SDS011;9773;47.062;15.446;2023-02-01T04:07:58;7.37;;;4.33;;
19278;SDS011;9773;47.062;15.446;2023-02-01T04:10:25;9.53;;;4.70;;
19278;SDS011;9773;47.062;15.446;2023-02-01T04:12:51;6.70;;;4.70;;
19278;SDS011;9773;47.062;15.446;2023-02-01T04:15:17;9.40;;;5.30;;
19278;SDS011;9773;47.062;15.446;2023-02-01T04:17:43;5.47;;;4.33;;
19278;SDS011;9773;47.062;15.446;2023-02-01T04:20:09;6.50;;;5.63;;
19278;SDS011;9773;47.062;15.446;2023-02-01T04:22:35;6.17;;;5.30;;
19278;SDS011;9773;47.062;15.446;2023-02-01T04:25:02;7.67;;;5.17;;
19278;SDS011;9773;47.062;15.446;2023-02-01T04:27:30;8.30;;;5.33;;
19278;SDS011;9773;47.062;15.446;2023-02-01T04:29:56;7.27;;;5.40;;
19278;SDS011;9773;47.062;15.446;2023-02-01T04:32:22;5.10;;;4.60;;
19278;SDS011;9773;47.062;15.446;2023-02-01T04:34:48;8.10;;;4.33;;
19278;SDS011;9773;47.062;15.446;2023-02-01T04:37:14;6.70;;;4.53;;
19278;SDS011;9773;47.062;15.446;2023-02-01T04:39:39;8.93;;;5.20;;
19278;SDS011;9773;47.062;15.446;2023-02-01T04:42:05;7.20;;;5.03;;
19278;SDS011;9773;47.062;15.446;2023-02-01T04:44:31;6.43;;;4.70;;
19278;SDS011;9773;47.062;15.446;2023-02-01T04:46:57;6.90;;;4.77;;
19278;SDS011;9773;47.062;15.446;2023-02-01T04:49:23;7.10;;;4.77;;
19278;SDS011;9773;47.062;15.446;2023-02-01T04:51:51;8.13;;;5.10;;
19278;SDS011;9773;47.062;15.446;2023-02-01T04:54:17;7.07;;;4.97;;
19278;SDS011;9773;47.062;15.446;2023-02-01T04:56:43;6.57;;;5.17;;
19278;SDS011;9773;47.062;15.446;2023-02-01T04:59:10;9.73;;;6.10;;
19278;SDS011;9773;47.062;15.446;2023-02-01T05:01:36;8.13;;;5.20;;
19278;SDS011;9773;47.062;15.446;2023-02-01T05:04:02;8.80;;;5.40;;
19278;SDS011;9773;47.062;15.446;2023-02-01T05:06:28;8.20;;;5.03;;
19278;SDS011;9773;47.062;15.446;2023-02-01T05:08:54;11.43;;;5.73;;
19278;SDS011;9773;47.062;15.446;2023-02-01T05:11:19;6.70;;;4.70;;
19278;SDS011;9773;47.062;15.446;2023-02-01T05:14:04;8.63;;;6.03;;
19278;SDS011;9773;47.062;15.446;2023-02-01T05:16:30;8.73;;;5.30;;
19278;SDS011;9773;47.062;15.446;2023-02-01T05:18:55;9.33;;;5.67;;
19278;SDS011;9773;47.062;15.446;2023-02-01T05:21:21;7.97;;;5.47;;
19278;SDS011;9773;47.062;15.446;2023-02-01T05:23:47;8.27;;;5.53;;
19278;SDS011;9773;47.062;15.446;2023-02-01T05:26:32;8.40;;;5.50;;
19278;SDS011;9773;47.062;15.446;2023-02-01T05:28:58;7.27;;;4.83;;
19278;SDS011;9773;47.062;15.446;2023-02-01T05:31:24;16.23;;;5.70;;
19278;SDS011;9773;47.062;15.446;2023-02-01T05:33:50;8.17;;;5.57;;
19278;SDS011;9773;47.062;15.446;2023-02-01T05:36:16;12.00;;;5.97;;
19278;SDS011;9773;47.062;15.446;2023-02-01T05:38:42;10.03;;;5.07;;
19278;SDS011;9773;47.062;15.446;2023-02-01T05:41:08;12.63;;;5.20;;
19278;SDS011;9773;47.062;15.446;2023-02-01T05:43:34;11.67;;;5.07;;
19278;SDS011;9773;47.062;15.446;2023-02-01T05:46:00;9.97;;;5.57;;
19278;SDS011;9773;47.062;15.446;2023-02-01T05:48:26;8.30;;;4.93;;
19278;SDS011;9773;47.062;15.446;2023-02-01T05:50:52;7.07;;;5.57;;
19278;SDS011;9773;47.062;15.446;2023-02-01T05:53:18;9.07;;;6.40;;
19278;SDS011;9773;47.062;15.446;2023-02-01T05:55:44;15.43;;;9.40;;
19278;SDS011;9773;47.062;15.446;2023-02-01T05:58:09;14.87;;;6.00;;
19278;SDS011;9773;47.062;15.446;2023-02-01T06:00:35;13.67;;;5.17;;
19278;SDS011;9773;47.062;15.446;2023-02-01T06:03:01;8.07;;;5.17;;
19278;SDS011;9773;47.062;15.446;2023-02-01T06:05:27;6.33;;;4.23;;
19278;SDS011;9773;47.062;15.446;2023-02-01T06:07:52;5.87;;;3.97;;
19278;SDS011;9773;47.062;15.446;2023-02-01T06:10:18;10.00;;;4.80;;
19278;SDS011;9773;47.062;15.446;2023-02-01T06:12:44;8.23;;;4.90;;
19278;SDS011;9773;47.062;15.446;2023-02-01T06:15:11;10.73;;;4.90;;
19278;SDS011;9773;47.062;15.446;2023-02-01T06:17:38;7.83;;;4.80;;
19278;SDS011;9773;47.062;15.446;2023-02-01T06:20:06;8.13;;;4.73;;
19278;SDS011;9773;47.062;15.446;2023-02-01T06:22:32;5.70;;;4.10;;
19278;SDS011;9773;47.062;15.446;2023-02-01T06:24:58;9.07;;;5.27;;
19278;SDS011;9773;47.062;15.446;2023-02-01T06:27:24;7.27;;;4.40;;
19278;SDS011;9773;47.062;15.446;2023-02-01T06:29:50;5.70;;;4.10;;
19278;SDS011;9773;47.062;15.446;2023-02-01T06:32:16;11.20;;;4.73;;
19278;SDS011;9773;47.062;15.446;2023-02-01T06:34:42;8.47;;;4.13;;
19278;SDS011;9773;47.062;15.446;2023-02-01T06:37:08;6.33;;;4.50;;
19278;SDS011;9773;47.062;15.446;2023-02-01T06:39:36;9.40;;;4.70;;
19278;SDS011;9773;47.062;15.446;2023-02-01T06:42:02;4.90;;;4.07;;
19278;SDS011;9773;47.062;15.446;2023-02-01T06:44:28;5.60;;;3.83;;
19278;SDS011;9773;47.062;15.446;2023-02-01T06:46:54;5.47;;;4.17;;
19278;SDS011;9773;47.062;15.446;2023-02-01T06:49:21;10.03;;;4.80;;
19278;SDS011;9773;47.062;15.446;2023-02-01T06:51:46;5.03;;;3.83;;
19278;SDS011;9773;47.062;15.446;2023-02-01T06:54:12;5.83;;;3.90;;
19278;SDS011;9773;47.062;15.446;2023-02-01T06:56:38;8.60;;;3.97;;
19278;SDS011;9773;47.062;15.446;2023-02-01T06:59:05;6.53;;;4.33;;
19278;SDS011;9773;47.062;15.446;2023-02-01T07:01:31;5.53;;;4.27;;
19278;SDS011;9773;47.062;15.446;2023-02-01T07:03:58;7.60;;;4.27;;
19278;SDS011;9773;47.062;15.446;2023-02-01T07:06:24;8.47;;;4.83;;
19278;SDS011;9773;47.062;15.446;2023-02-01T07:08:50;7.43;;;4.10;;
19278;SDS011;9773;47.062;15.446;2023-02-01T07:11:16;5.97;;;4.00;;
19278;SDS011;9773;47.062;15.446;2023-02-01T07:13:43;6.00;;;3.70;;
19278;SDS011;9773;47.062;15.446;2023-02-01T07:16:11;5.60;;;3.93;;
19278;SDS011;9773;47.062;15.446;2023-02-01T07:18:38;7.00;;;3.83;;
19278;SDS011;9773;47.062;15.446;2023-02-01T07:21:04;6.77;;;3.97;;
19278;SDS011;9773;47.062;15.446;2023-02-01T07:23:31;6.70;;;3.80;;
19278;SDS011;9773;47.062;15.446;2023-02-01T07:25:58;6.13;;;4.07;;
19278;SDS011;9773;47.062;15.446;2023-02-01T07:28:27;7.33;;;5.17;;
19278;SDS011;9773;47.062;15.446;2023-02-01T07:30:54;5.03;;;4.53;;
19278;SDS011;9773;47.062;15.446;2023-02-01T07:33:21;4.90;;;4.37;;
19278;SDS011;9773;47.062;15.446;2023-02-01T07:35:48;7.33;;;4.50;;
19278;SDS011;9773;47.062;15.446;2023-02-01T07:38:15;8.47;;;4.47;;
19278;SDS011;9773;47.062;15.446;2023-02-01T07:40:41;8.17;;;5.07;;
19278;SDS011;9773;47.062;15.446;2023-02-01T07:43:07;10.37;;;4.80;;
19278;SDS011;9773;47.062;15.446;2023-02-01T07:45:34;6.70;;;4.10;;
19278;SDS011;9773;47.062;15.446;2023-02-01T07:48:01;5.63;;;4.30;;
19278;SDS011;9773;47.062;15.446;2023-02-01T07:50:27;3.50;;;3.20;;
19278;SDS011;9773;47.062;15.446;2023-02-01T07:52:53;3.80;;;3.33;;
19278;SDS011;9773;47.062;15.446;2023-02-01T07:55:19;3.93;;;3.13;;
19278;SDS011;9773;47.062;15.446;2023-02-01T07:57:45;7.47;;;3.30;;
19278;SDS011;9773;47.062;15.446;2023-02-01T08:00:11;4.10;;;3.00;;
19278;SDS011;9773;47.062;15.446;2023-02-01T08:02:59;8.00;;;3.70;;
19278;SDS011;9773;47.062;15.446;2023-02-01T08:05:25;9.53;;;3.83;;
19278;SDS011;9773;47.062;15.446;2023-02-01T08:07:53;3.37;;;3.00;;
19278;SDS011;9773;47.062;15.446;2023-02-01T08:10:19;6.43;;;3.20;;
19278;SDS011;9773;47.062;15.446;2023-02-01T08:12:45;6.33;;;3.27;;
19278;SDS011;9773;47.062;15.446;2023-02-01T08:15:16;4.60;;;3.30;;
19278;SDS011;9773;47.062;15.446;2023-02-01T08:17:46;4.00;;;3.67;;
19278;SDS011;9773;47.062;15.446;2023-02-01T08:20:16;4.90;;;4.03;;
19278;SDS011;9773;47.062;15.446;2023-02-01T08:22:42;9.00;;;4.20;;
19278;SDS011;9773;47.062;15.446;2023-02-01T08:25:09;5.73;;;4.03;;
19278;SDS011;9773;47.062;15.446;2023-02-01T08:27:35;4.33;;;3.73;;
19278;SDS011;9773;47.062;15.446;2023-02-01T08:30:02;9.07;;;3.80;;
19278;SDS011;9773;47.062;15.446;2023-02-01T08:32:29;5.13;;;3.93;;
19278;SDS011;9773;47.062;15.446;2023-02-01T08:34:55;4.67;;;3.87;;
19278;SDS011;9773;47.062;15.446;2023-02-01T08:37:21;8.23;;;3.83;;
19278;SDS011;9773;47.062;15.446;2023-02-01T08:39:47;6.50;;;4.40;;
19278;SDS011;9773;47.062;15.446;2023-02-01T08:42:15;5.90;;;3.90;;
19278;SDS011;9773;47.062;15.446;2023-02-01T08:45:01;8.53;;;4.33;;
19278;SDS011;9773;47.062;15.446;2023-02-01T08:47:27;5.43;;;4.03;;
19278;SDS011;9773;47.062;15.446;2023-02-01T08:49:53;6.13;;;3.90;;
19278;SDS011;9773;47.062;15.446;2023-02-01T08:52:19;9.17;;;4.43;;
19278;SDS011;9773;47.062;15.446;2023-02-01T08:54:45;8.07;;;4.30;;
19278;SDS011;9773;47.062;15.446;2023-02-01T08:57:11;9.23;;;4.70;;
19278;SDS011;9773;47.062;15.446;2023-02-01T08:59:38;8.90;;;5.03;;
19278;SDS011;9773;47.062;15.446;2023-02-01T09:02:04;7.03;;;5.00;;
19278;SDS011;9773;47.062;15.446;2023-02-01T09:04:29;6.07;;;4.00;;
19278;SDS011;9773;47.062;15.446;2023-02-01T09:06:55;5.23;;;3.80;;
19278;SDS011;9773;47.062;15.446;2023-02-01T09:09:22;6.43;;;3.73;;
19278;SDS011;9773;47.062;15.446;2023-02-01T09:11:48;4.97;;;3.37;;
19278;SDS011;9773;47.062;15.446;2023-02-01T09:14:15;4.90;;;3.70;;
19278;SDS011;9773;47.062;15.446;2023-02-01T09:16:41;3.57;;;3.27;;
19278;SDS011;9773;47.062;15.446;2023-02-01T09:19:07;6.80;;;4.03;;
19278;SDS011;9773;47.062;15.446;2023-02-01T09:21:34;5.10;;;4.00;;
19278;SDS011;9773;47.062;15.446;2023-02-01T09:23:59;6.03;;;3.77;;
19278;SDS011;9773;47.062;15.446;2023-02-01T09:26:25;6.47;;;3.93;;
19278;SDS011;9773;47.062;15.446;2023-02-01T09:28:51;7.97;;;4.77;;
19278;SDS011;9773;47.062;15.446;2023-02-01T09:31:17;4.53;;;3.83;;
19278;SDS011;9773;47.062;15.446;2023-02-01T09:33:43;5.70;;;4.13;;
19278;SDS011;9773;47.062;15.446;2023-02-01T09:36:09;7.83;;;3.90;;
19278;SDS011;9773;47.062;15.446;2023-02-01T09:38:35;4.93;;;3.90;;
19278;SDS011;9773;47.062;15.446;2023-02-01T09:41:01;6.50;;;4.10;;
19278;SDS011;9773;47.062;15.446;2023-02-01T09:46:16;8.20;;;4.67;;
19278;SDS011;9773;47.062;15.446;2023-02-01T09:48:52;9.63;;;4.30;;
19278;SDS011;9773;47.062;15.446;2023-02-01T09:51:23;7.27;;;4.90;;
19278;SDS011;9773;47.062;15.446;2023-02-01T09:54:05;15.90;;;6.20;;
19278;SDS011;9773;47.062;15.446;2023-02-01T09:56:49;9.13;;;5.03;;
19278;SDS011;9773;47.062;15.446;2023-02-01T10:02:00;4.73;;;4.23;;
19278;SDS011;9773;47.062;15.446;2023-02-01T10:04:28;6.43;;;4.67;;
19278;SDS011;9773;47.062;15.446;2023-02-01T10:06:57;11.00;;;4.93;;
19278;SDS011;9773;47.062;15.446;2023-02-01T10:09:42;7.30;;;4.03;;
19278;SDS011;9773;47.062;15.446;2023-02-01T10:18:20;7.43;;;3.83;;
19278;SDS011;9773;47.062;15.446;2023-02-01T10:23:50;4.40;;;3.97;;
19278;SDS011;9773;47.062;15.446;2023-02-01T10:26:34;7.20;;;4.23;;
19278;SDS011;9773;47.062;15.446;2023-02-01T10:29:04;5.63;;;4.30;;
19278;SDS011;9773;47.062;15.446;2023-02-01T10:31:37;4.47;;;3.80;;
19278;SDS011;9773;47.062;15.446;2023-02-01T10:37:01;4.30;;;3.90;;
19278;SDS011;9773;47.062;15.446;2023-02-01T10:39:33;5.50;;;4.20;;
19278;SDS011;9773;47.062;15.446;2023-02-01T10:41:59;4.40;;;3.50;;
19278;SDS011;9773;47.062;15.446;2023-02-01T10:44:26;8.07;;;3.67;;
19278;SDS011;9773;47.062;15.446;2023-02-01T10:46:55;3.33;;;3.00;;
19278;SDS011;9773;47.062;15.446;2023-02-01T10:49:34;3.03;;;2.50;;
19278;SDS011;9773;47.062;15.446;2023-02-01T10:52:14;2.80;;;2.57;;
19278;SDS011;9773;47.062;15.446;2023-02-01T10:54:42;3.57;;;2.10;;
19278;SDS011;9773;47.062;15.446;2023-02-01T10:57:08;2.60;;;2.40;;
19278;SDS011;9773;47.062;15.446;2023-02-01T10:59:42;3.00;;;2.37;;
19278;SDS011;9773;47.062;15.446;2023-02-01T11:02:24;4.33;;;2.57;;
19278;SDS011;9773;47.062;15.446;2023-02-01T11:05:01;2.83;;;2.23;;
19278;SDS011;9773;47.062;15.446;2023-02-01T11:07:29;4.50;;;2.20;;
19278;SDS011;9773;47.062;15.446;2023-02-01T11:09:56;1.90;;;1.80;;
19278;SDS011;9773;47.062;15.446;2023-02-01T11:12:38;3.03;;;2.03;;
19278;SDS011;9773;47.062;15.446;2023-02-01T11:15:20;1.83;;;1.73;;
19278;SDS011;9773;47.062;15.446;2023-02-01T11:17:48;3.80;;;2.13;;
19278;SDS011;9773;47.062;15.446;2023-02-01T11:22:56;3.70;;;2.07;;
19278;SDS011;9773;47.062;15.446;2023-02-01T11:25:22;2.60;;;2.40;;
19278;SDS011;9773;47.062;15.446;2023-02-01T11:27:50;4.20;;;2.93;;
19278;SDS011;9773;47.062;15.446;2023-02-01T11:30:30;4.37;;;3.07;;
19278;SDS011;9773;47.062;15.446;2023-02-01T11:32:59;3.03;;;2.83;;
19278;SDS011;9773;47.062;15.446;2023-02-01T11:35:27;4.90;;;2.50;;
19278;SDS011;9773;47.062;15.446;2023-02-01T11:37:56;5.43;;;3.10;;
19278;SDS011;9773;47.062;15.446;2023-02-01T11:40:28;2.80;;;2.60;;
19278;SDS011;9773;47.062;15.446;2023-02-01T11:43:01;5.80;;;3.03;;
19278;SDS011;9773;47.062;15.446;2023-02-01T11:45:33;2.70;;;2.53;;
19278;SDS011;9773;47.062;15.446;2023-02-01T11:48:00;4.70;;;2.47;;
19278;SDS011;9773;47.062;15.446;2023-02-01T11:55:51;3.93;;;2.90;;
19278;SDS011;9773;47.062;15.446;2023-02-01T11:58:32;2.50;;;2.30;;
19278;SDS011;9773;47.062;15.446;2023-02-01T12:11:49;1.37;;;0.43;;
19278;SDS011;9773;47.062;15.446;2023-02-01T12:20:15;0.60;;;0.60;;
19278;SDS011;9773;47.062;15.446;2023-02-01T12:25:26;3.20;;;0.77;;
19278;SDS011;9773;47.062;15.446;2023-02-01T12:31:00;0.40;;;0.40;;
19278;SDS011;9773;47.062;15.446;2023-02-01T12:33:40;0.60;;;0.60;;
19278;SDS011;9773;47.062;15.446;2023-02-01T12:50:50;0.33;;;0.33;;
19278;SDS011;9773;47.062;15.446;2023-02-01T12:52:52;0.40;;;0.40;;
19278;SDS011;9773;47.062;15.446;2023-02-01T12:58:27;0.60;;;0.60;;
19278;SDS011;9773;47.062;15.446;2023-02-01T13:01:02;0.60;;;0.60;;
19278;SDS011;9773;47.062;15.446;2023-02-01T13:03:38;0.40;;;0.40;;
19278;SDS011;9773;47.062;15.446;2023-02-01T13:06:17;0.43;;;0.43;;
19278;SDS011;9773;47.062;15.446;2023-02-01T13:11:27;0.60;;;0.50;;
19278;SDS011;9773;47.062;15.446;2023-02-01T13:14:10;0.30;;;0.30;;
19278;SDS011;9773;47.062;15.446;2023-02-01T13:16:57;1.20;;;0.40;;
19278;SDS011;9773;47.062;15.446;2023-02-01T13:19:41;1.90;;;0.40;;
19278;SDS011;9773;47.062;15.446;2023-02-01T13:22:20;0.50;;;0.50;;
19278;SDS011;9773;47.062;15.446;2023-02-01T13:25:13;0.40;;;0.40;;
19278;SDS011;9773;47.062;15.446;2023-02-01T13:27:55;0.40;;;0.40;;
19278;SDS011;9773;47.062;15.446;2023-02-01T13:36:17;0.60;;;0.60;;
19278;SDS011;9773;47.062;15.446;2023-02-01T13:41:29;0.90;;;0.70;;
19278;SDS011;9773;47.062;15.446;2023-02-01T13:44:00;1.07;;;0.80;;
19278;SDS011;9773;47.062;15.446;2023-02-01T13:46:30;0.40;;;0.40;;
19278;SDS011;9773;47.062;15.446;2023-02-01T13:49:14;0.60;;;0.60;;
19278;SDS011;9773;47.062;15.446;2023-02-01T13:51:49;0.30;;;0.30;;
19278;SDS011;9773;47.062;15.446;2023-02-01T13:54:36;0.40;;;0.40;;
19278;SDS011;9773;47.062;15.446;2023-02-01T13:57:05;0.50;;;0.50;;
19278;SDS011;9773;47.062;15.446;2023-02-01T13:59:52;0.60;;;0.60;;
19278;SDS011;9773;47.062;15.446;2023-02-01T14:05:54;0.40;;;0.40;;
19278;SDS011;9773;47.062;15.446;2023-02-01T14:08:22;0.47;;;0.47;;
19278;SDS011;9773;47.062;15.446;2023-02-01T14:11:02;0.63;;;0.63;;
19278;SDS011;9773;47.062;15.446;2023-02-01T14:28:57;0.90;;;0.50;;
19278;SDS011;9773;47.062;15.446;2023-02-01T14:37:01;1.60;;;0.60;;
19278;SDS011;9773;47.062;15.446;2023-02-01T14:40:04;0.53;;;0.53;;
19278;SDS011;9773;47.062;15.446;2023-02-01T14:47:51;0.30;;;0.30;;
19278;SDS011;9773;47.062;15.446;2023-02-01T14:50:29;0.90;;;0.90;;
19278;SDS011;9773;47.062;15.446;2023-02-01T15:00:56;0.50;;;0.50;;
19278;SDS011;9773;47.062;15.446;2023-02-01T15:05:56;0.50;;;0.50;;
19278;SDS011;9773;47.062;15.446;2023-02-01T15:08:44;0.80;;;0.77;;
19278;SDS011;9773;47.062;15.446;2023-02-01T15:11:14;0.70;;;0.70;;
19278;SDS011;9773;47.062;15.446;2023-02-01T15:13:47;0.70;;;0.70;;
19278;SDS011;9773;47.062;15.446;2023-02-01T15:16:15;2.10;;;0.87;;
19278;SDS011;9773;47.062;15.446;2023-02-01T15:18:42;1.00;;;0.90;;
19278;SDS011;9773;47.062;15.446;2023-02-01T15:21:42;1.40;;;0.77;;
19278;SDS011;9773;47.062;15.446;2023-02-01T15:24:11;0.83;;;0.80;;
19278;SDS011;9773;47.062;15.446;2023-02-01T15:26:44;0.70;;;0.70;;
19278;SDS011;9773;47.062;15.446;2023-02-01T15:29:10;0.80;;;0.80;;
19278;SDS011;9773;47.062;15.446;2023-02-01T15:31:39;0.70;;;0.60;;
19278;SDS011;9773;47.062;15.446;2023-02-01T15:34:11;1.23;;;0.87;;
19278;SDS011;9773;47.062;15.446;2023-02-01T15:36:37;0.80;;;0.80;;
19278;SDS011;9773;47.062;15.446;2023-02-01T15:39:20;0.70;;;0.70;;
19278;SDS011;9773;47.062;15.446;2023-02-01T15:42:00;1.27;;;0.60;;
19278;SDS011;9773;47.062;15.446;2023-02-01T15:44:40;1.10;;;1.10;;
19278;SDS011;9773;47.062;15.446;2023-02-01T15:47:16;0.80;;;0.80;;
19278;SDS011;9773;47.062;15.446;2023-02-01T15:49:42;0.87;;;0.87;;
19278;SDS011;9773;47.062;15.446;2023-02-01T15:52:34;1.90;;;1.67;;
19278;SDS011;9773;47.062;15.446;2023-02-01T15:55:02;1.00;;;1.00;;
19278;SDS011;9773;47.062;15.446;2023-02-01T15:57:36;1.10;;;1.10;;
19278;SDS011;9773;47.062;15.446;2023-02-01T16:00:06;1.10;;;1.10;;
19278;SDS011;9773;47.062;15.446;2023-02-01T16:05:33;0.80;;;0.80;;
19278;SDS011;9773;47.062;15.446;2023-02-01T16:08:05;1.00;;;1.00;;
19278;SDS011;9773;47.062;15.446;2023-02-01T16:10:42;1.00;;;1.00;;
19278;SDS011;9773;47.062;15.446;2023-02-01T16:13:10;0.70;;;0.70;;
19278;SDS011;9773;47.062;15.446;2023-02-01T16:15:37;1.10;;;1.10;;
19278;SDS011;9773;47.062;15.446;2023-02-01T16:18:03;1.03;;;1.03;;
19278;SDS011;9773;47.062;15.446;2023-02-01T16:20:31;1.10;;;1.10;;
19278;SDS011;9773;47.062;15.446;2023-02-01T16:22:58;1.33;;;1.30;;
19278;SDS011;9773;47.062;15.446;2023-02-01T16:25:24;2.27;;;1.10;;
19278;SDS011;9773;47.062;15.446;2023-02-01T16:27:49;0.87;;;0.67;;
19278;SDS011;9773;47.062;15.446;2023-02-01T16:30:15;2.30;;;1.43;;
19278;SDS011;9773;47.062;15.446;2023-02-01T16:32:47;1.30;;;1.30;;
19278;SDS011;9773;47.062;15.446;2023-02-01T16:35:21;2.00;;;1.20;;
19278;SDS011;9773;47.062;15.446;2023-02-01T16:37:52;1.40;;;1.20;;
19278;SDS011;9773;47.062;15.446;2023-02-01T16:40:19;1.93;;;1.30;;
19278;SDS011;9773;47.062;15.446;2023-02-01T16:42:50;1.63;;;1.53;;
19278;SDS011;9773;47.062;15.446;2023-02-01T16:45:18;2.17;;;1.50;;
19278;SDS011;9773;47.062;15.446;2023-02-01T16:47:47;1.30;;;1.30;;
19278;SDS011;9773;47.062;15.446;2023-02-01T16:50:25;1.83;;;1.10;;
19278;SDS011;9773;47.062;15.446;2023-02-01T16:52:52;1.13;;;1.13;;
19278;SDS011;9773;47.062;15.446;2023-02-01T16:55:21;2.10;;;1.30;;
19278;SDS011;9773;47.062;15.446;2023-02-01T16:57:47;1.53;;;1.50;;
19278;SDS011;9773;47.062;15.446;2023-02-01T17:00:13;1.50;;;1.50;;
19278;SDS011;9773;47.062;15.446;2023-02-01T17:02:42;1.37;;;1.30;;
19278;SDS011;9773;47.062;15.446;2023-02-01T17:05:10;2.57;;;1.27;;
19278;SDS011;9773;47.062;15.446;2023-02-01T17:07:37;1.47;;;1.40;;
19278;SDS011;9773;47.062;15.446;2023-02-01T17:10:05;1.73;;;1.37;;
19278;SDS011;9773;47.062;15.446;2023-02-01T17:12:37;1.37;;;1.23;;
19278;SDS011;9773;47.062;15.446;2023-02-01T17:15:03;1.20;;;1.10;;
19278;SDS011;9773;47.062;15.446;2023-02-01T17:17:34;1.60;;;1.50;;
19278;SDS011;9773;47.062;15.446;2023-02-01T17:20:02;1.60;;;1.50;;
19278;SDS011;9773;47.062;15.446;2023-02-01T17:22:29;2.00;;;1.63;;
19278;SDS011;9773;47.062;15.446;2023-02-01T17:24:55;1.60;;;1.50;;
19278;SDS011;9773;47.062;15.446;2023-02-01T17:27:21;1.70;;;1.60;;
19278;SDS011;9773;47.062;15.446;2023-02-01T17:29:47;1.70;;;1.60;;
19278;SDS011;9773;47.062;15.446;2023-02-01T17:32:18;1.80;;;1.70;;
19278;SDS011;9773;47.062;15.446;2023-02-01T17:34:46;1.50;;;1.40;;